Time;durP1;ratioP1;P1;durP2;ratioP2;P2;SDS_P1;SDS_P2;PMS_P1;PMS_P2;Temp;Humidity;BMP_temperature;BMP_pressure;BME280_temperature;BME280_humidity;BME280_pressure;Samples;Min_cycle;Max_cycle;Signal;HPM_P1;HPM_P2
2024/01/05 00:01:13;;;;;;;9.63;3.00;;;10.20;99.90;;;;;;5028057;28;20460;-75
2024/01/05 00:03:41;;;;;;;7.63;2.67;;;10.20;99.90;;;;;;5059232;28;20475;-75
2024/01/05 00:06:13;;;;;;;5.43;2.43;;;10.20;99.90;;;;;;5039349;28;20426;-75
2024/01/05 00:08:42;;;;;;;8.50;3.00;;;10.20;99.90;;;;;;5024600;28;20466;-75
2024/01/05 00:11:08;;;;;;;4.03;2.83;;;10.20;99.90;;;;;;5035872;28;20999;-75
2024/01/05 00:13:34;;;;;;;8.27;2.67;;;10.20;99.90;;;;;;5053816;28;20503;-75
2024/01/05 00:16:00;;;;;;;7.60;2.70;;;10.20;99.90;;;;;;5052636;28;20449;-75
2024/01/05 00:18:27;;;;;;;4.97;2.63;;;10.20;99.90;;;;;;5059066;28;20442;-75
2024/01/05 00:20:56;;;;;;;4.23;3.80;;;10.20;99.90;;;;;;5055917;28;20461;-75
2024/01/05 00:23:22;;;;;;;9.63;2.83;;;10.20;99.90;;;;;;5048114;28;20451;-75
2024/01/05 00:25:52;;;;;;;5.70;2.33;;;10.20;99.90;;;;;;5041253;28;20551;-75
2024/01/05 00:28:18;;;;;;;3.53;2.50;;;10.20;99.90;;;;;;5041707;28;20430;-73
2024/01/05 00:30:46;;;;;;;5.90;3.20;;;10.20;99.90;;;;;;5061013;28;20479;-75
2024/01/05 00:33:15;;;;;;;8.80;2.60;;;10.20;99.90;;;;;;5057966;28;20458;-75
2024/01/05 00:35:41;;;;;;;10.57;3.40;;;10.20;99.90;;;;;;5053906;28;20433;-75
2024/01/05 00:38:07;;;;;;;7.37;2.40;;;10.20;99.90;;;;;;5038009;28;20466;-75
2024/01/05 00:40:33;;;;;;;6.73;2.70;;;10.20;99.90;;;;;;5052508;28;20430;-75
2024/01/05 00:43:04;;;;;;;7.60;2.77;;;10.30;99.90;;;;;;5053523;28;20461;-75
2024/01/05 00:45:30;;;;;;;6.80;2.40;;;10.20;99.90;;;;;;5054526;28;20500;-75
2024/01/05 00:47:59;;;;;;;11.40;3.20;;;10.20;99.90;;;;;;5055522;28;20599;-75
2024/01/05 00:50:27;;;;;;;9.77;3.27;;;10.20;99.90;;;;;;5042500;28;20509;-75
2024/01/05 00:52:53;;;;;;;6.10;2.93;;;10.20;99.90;;;;;;5052114;28;20433;-75
2024/01/05 00:55:19;;;;;;;5.67;2.47;;;10.20;99.90;;;;;;5035546;28;20434;-75
2024/01/05 00:57:45;;;;;;;8.00;2.90;;;10.20;99.90;;;;;;5040125;28;20438;-75
2024/01/05 01:00:15;;;;;;;7.33;2.80;;;10.20;99.90;;;;;;5044826;28;20508;-75
2024/01/05 01:02:41;;;;;;;6.23;2.53;;;10.20;99.90;;;;;;5015204;28;20538;-74
2024/01/05 01:05:10;;;;;;;7.87;2.47;;;10.20;99.90;;;;;;5049152;28;20789;-75
2024/01/05 01:07:35;;;;;;;6.03;2.40;;;10.20;99.90;;;;;;5033337;28;20426;-75
2024/01/05 01:10:07;;;;;;;6.60;2.80;;;10.20;99.90;;;;;;5048180;28;20470;-75
2024/01/05 01:12:34;;;;;;;7.47;2.77;;;10.20;99.90;;;;;;5035444;28;20466;-75
2024/01/05 01:15:00;;;;;;;3.90;2.60;;;10.20;99.90;;;;;;5039794;28;20463;-75
2024/01/05 01:17:29;;;;;;;7.00;2.73;;;10.20;99.90;;;;;;5025837;28;20437;-75
2024/01/05 01:19:56;;;;;;;7.43;2.47;;;10.20;99.90;;;;;;5053728;28;20438;-75
2024/01/05 01:22:24;;;;;;;7.37;2.70;;;10.20;99.90;;;;;;5053923;28;20488;-75
2024/01/05 01:24:50;;;;;;;8.67;3.17;;;10.20;99.90;;;;;;5055963;28;21026;-75
2024/01/05 01:27:17;;;;;;;4.93;2.97;;;10.20;99.90;;;;;;5038818;28;20453;-75
2024/01/05 01:29:43;;;;;;;7.50;2.70;;;10.20;99.90;;;;;;5022958;28;20862;-75
2024/01/05 01:32:12;;;;;;;5.03;2.83;;;10.20;99.90;;;;;;5032028;28;20508;-75
2024/01/05 01:34:39;;;;;;;5.30;2.70;;;10.20;99.90;;;;;;5039769;28;20575;-75
2024/01/05 01:37:08;;;;;;;6.50;2.47;;;10.20;99.90;;;;;;5051199;28;20422;-75
2024/01/05 01:39:34;;;;;;;4.70;2.50;;;10.20;99.90;;;;;;5045831;28;20488;-75
2024/01/05 01:42:03;;;;;;;6.70;2.73;;;10.20;99.90;;;;;;5053638;28;20867;-75
2024/01/05 01:44:29;;;;;;;3.70;2.00;;;10.20;99.90;;;;;;5058287;28;20448;-75
2024/01/05 01:46:57;;;;;;;3.63;2.13;;;10.20;99.90;;;;;;5055253;28;20430;-75
2024/01/05 01:49:25;;;;;;;3.67;2.60;;;10.20;99.90;;;;;;5051222;28;20466;-75
2024/01/05 01:51:52;;;;;;;7.30;2.90;;;10.20;99.90;;;;;;5055069;28;20439;-75
2024/01/05 01:54:18;;;;;;;5.77;2.27;;;10.20;99.90;;;;;;5055281;28;21082;-75
2024/01/05 01:56:48;;;;;;;4.90;2.20;;;10.20;99.90;;;;;;5050031;28;20418;-75
2024/01/05 01:59:16;;;;;;;6.80;2.37;;;10.20;99.90;;;;;;5056693;28;20426;-75
2024/01/05 02:01:46;;;;;;;7.67;3.30;;;10.20;99.90;;;;;;5034116;28;20495;-75
2024/01/05 02:04:19;;;;;;;6.27;3.13;;;10.20;99.90;;;;;;5036867;28;20968;-75
2024/01/05 02:06:47;;;;;;;9.30;2.83;;;10.20;99.90;;;;;;5055814;28;20619;-75
2024/01/05 02:09:13;;;;;;;9.10;2.27;;;10.20;99.90;;;;;;5053471;28;20992;-75
2024/01/05 02:11:42;;;;;;;7.13;2.50;;;10.20;99.90;;;;;;5044417;28;20449;-75
2024/01/05 02:14:08;;;;;;;5.77;2.50;;;10.20;99.90;;;;;;5052561;28;20469;-75
2024/01/05 02:16:34;;;;;;;7.23;2.37;;;10.20;99.90;;;;;;5025453;28;21240;-75
2024/01/05 02:19:20;;;;;;;6.40;2.50;;;10.20;99.90;;;;;;5043107;28;20430;-75
2024/01/05 02:21:50;;;;;;;5.83;2.43;;;10.20;99.90;;;;;;5058476;28;20441;-75
2024/01/05 02:24:16;;;;;;;6.80;2.37;;;10.20;99.90;;;;;;5022353;28;20445;-75
2024/01/05 02:26:46;;;;;;;7.13;2.57;;;10.20;99.90;;;;;;5047282;28;21024;-75
2024/01/05 02:29:21;;;;;;;3.90;2.00;;;10.20;99.90;;;;;;5057720;28;21003;-75
2024/01/05 02:31:48;;;;;;;6.80;2.67;;;10.20;99.90;;;;;;5054534;28;20532;-75
2024/01/05 02:34:14;;;;;;;2.77;2.50;;;10.20;99.90;;;;;;5045410;28;20766;-75
2024/01/05 02:36:42;;;;;;;6.77;2.30;;;10.20;99.90;;;;;;5054946;28;20424;-75
2024/01/05 02:39:13;;;;;;;3.90;2.30;;;10.20;99.90;;;;;;5048724;28;20435;-75
2024/01/05 02:41:39;;;;;;;6.07;2.73;;;10.20;99.90;;;;;;5046479;28;20983;-75
2024/01/05 02:44:05;;;;;;;4.53;2.50;;;10.20;99.90;;;;;;5053710;28;20437;-75
2024/01/05 02:46:33;;;;;;;3.13;2.17;;;10.20;99.90;;;;;;5055467;28;21473;-75
2024/01/05 02:49:05;;;;;;;6.70;2.53;;;10.10;99.90;;;;;;5056547;28;20477;-75
2024/01/05 02:51:36;;;;;;;5.63;2.40;;;10.20;99.90;;;;;;5048724;28;20472;-75
2024/01/05 02:54:01;;;;;;;3.90;2.30;;;10.20;99.90;;;;;;5052487;28;20433;-75
2024/01/05 02:56:31;;;;;;;5.10;2.23;;;10.10;99.90;;;;;;5050486;28;20970;-75
2024/01/05 02:58:59;;;;;;;5.83;2.10;;;10.20;99.90;;;;;;5048289;28;20434;-75
2024/01/05 03:01:27;;;;;;;4.70;2.30;;;10.10;99.90;;;;;;5032600;28;20442;-75
2024/01/05 03:03:53;;;;;;;5.13;2.33;;;10.20;99.90;;;;;;5050584;28;20473;-75
2024/01/05 03:06:19;;;;;;;9.03;2.30;;;10.20;99.90;;;;;;5055203;28;20433;-75
2024/01/05 03:08:46;;;;;;;8.90;3.10;;;10.20;99.90;;;;;;5043032;28;20927;-75
2024/01/05 03:11:12;;;;;;;4.07;2.10;;;10.20;99.90;;;;;;5029234;28;20453;-75
2024/01/05 03:13:42;;;;;;;4.50;2.60;;;10.10;99.90;;;;;;5017301;28;20544;-75
2024/01/05 03:16:11;;;;;;;4.87;2.20;;;10.10;99.90;;;;;;5046494;28;20415;-75
2024/01/05 03:18:37;;;;;;;6.10;3.00;;;10.10;99.90;;;;;;5048742;28;20996;-75
2024/01/05 03:21:03;;;;;;;7.83;2.87;;;10.10;99.90;;;;;;5044627;28;20427;-75
2024/01/05 03:23:29;;;;;;;4.03;2.53;;;10.10;99.90;;;;;;5036207;28;20466;-75
2024/01/05 03:25:58;;;;;;;8.03;2.80;;;10.10;99.90;;;;;;5052005;28;20442;-75
2024/01/05 03:28:24;;;;;;;5.03;2.93;;;10.20;99.90;;;;;;5054631;28;20425;-75
2024/01/05 03:30:55;;;;;;;9.80;2.50;;;10.10;99.90;;;;;;5043462;28;20859;-75
2024/01/05 03:33:20;;;;;;;5.47;2.83;;;10.10;99.90;;;;;;5047526;28;21044;-75
2024/01/05 03:35:46;;;;;;;6.47;2.67;;;10.10;99.90;;;;;;5040787;28;20440;-75
2024/01/05 03:38:12;;;;;;;4.23;2.90;;;10.10;99.90;;;;;;5038092;28;20464;-75
2024/01/05 03:40:42;;;;;;;4.60;2.80;;;10.10;99.90;;;;;;5040369;28;20430;-75
2024/01/05 03:43:10;;;;;;;7.13;2.80;;;10.10;99.90;;;;;;5025716;28;20455;-75
2024/01/05 03:45:42;;;;;;;7.53;2.63;;;10.10;99.90;;;;;;5052725;28;20508;-75
2024/01/05 03:48:08;;;;;;;8.73;3.80;;;10.10;99.90;;;;;;5054519;28;20871;-75
2024/01/05 03:50:34;;;;;;;4.17;2.40;;;10.10;99.90;;;;;;5048750;28;20916;-75
2024/01/05 03:53:03;;;;;;;5.83;2.80;;;10.10;99.90;;;;;;5048869;28;21049;-75
2024/01/05 03:55:29;;;;;;;5.33;2.87;;;10.10;99.90;;;;;;5055687;28;20433;-75
2024/01/05 03:57:57;;;;;;;5.10;2.70;;;10.10;99.90;;;;;;5037792;28;20462;-75
2024/01/05 04:00:23;;;;;;;2.97;2.30;;;10.10;99.90;;;;;;5038678;28;21039;-75
2024/01/05 04:02:51;;;;;;;6.73;2.80;;;10.10;99.90;;;;;;5059640;28;20503;-75
2024/01/05 04:05:19;;;;;;;3.87;2.87;;;10.10;99.90;;;;;;5059231;28;20462;-75
2024/01/05 04:07:45;;;;;;;5.07;2.23;;;10.10;99.90;;;;;;5042531;28;20841;-75
2024/01/05 04:10:12;;;;;;;4.13;1.97;;;10.10;99.90;;;;;;5046991;28;21012;-75
2024/01/05 04:12:42;;;;;;;4.97;2.37;;;10.10;99.90;;;;;;5038500;28;20218;-75
2024/01/05 04:15:09;;;;;;;6.37;2.43;;;10.10;99.90;;;;;;5055097;28;20532;-72
2024/01/05 04:17:38;;;;;;;8.03;2.60;;;10.10;99.90;;;;;;5046529;28;20422;-72
2024/01/05 04:20:10;;;;;;;5.93;2.90;;;10.10;99.90;;;;;;5039781;28;20469;-72
2024/01/05 04:22:38;;;;;;;5.83;2.57;;;10.10;99.90;;;;;;5058461;28;20528;-72
2024/01/05 04:25:04;;;;;;;6.30;2.53;;;10.10;99.90;;;;;;5056761;28;20909;-72
2024/01/05 04:27:33;;;;;;;5.23;1.97;;;10.10;99.90;;;;;;5056109;28;20461;-72
2024/01/05 04:29:58;;;;;;;5.23;2.70;;;10.10;99.90;;;;;;5051914;28;20894;-72
2024/01/05 04:32:24;;;;;;;3.80;2.23;;;10.10;99.90;;;;;;5056759;28;20460;-73
2024/01/05 04:34:52;;;;;;;3.43;2.33;;;10.10;99.90;;;;;;5059869;28;20434;-72
2024/01/05 04:37:24;;;;;;;6.70;2.57;;;10.10;99.90;;;;;;5054629;28;20430;-72
2024/01/05 04:39:52;;;;;;;4.70;2.20;;;10.10;99.90;;;;;;5045628;28;20464;-72
2024/01/05 04:42:18;;;;;;;6.27;3.20;;;10.10;99.90;;;;;;5056070;28;20481;-72
2024/01/05 04:44:44;;;;;;;4.23;2.30;;;10.10;99.90;;;;;;5054760;28;20590;-72
2024/01/05 04:47:12;;;;;;;4.63;2.27;;;10.10;99.90;;;;;;5031429;28;20925;-72
2024/01/05 04:49:40;;;;;;;4.53;2.83;;;10.10;99.90;;;;;;5053921;28;20285;-72
2024/01/05 04:52:09;;;;;;;5.40;2.67;;;10.10;99.90;;;;;;5056918;28;20988;-72
2024/01/05 04:54:37;;;;;;;5.47;2.30;;;10.10;99.90;;;;;;5057212;28;21011;-72
2024/01/05 04:57:05;;;;;;;9.13;3.40;;;10.10;99.90;;;;;;5052669;28;20431;-73
2024/01/05 04:59:31;;;;;;;3.43;2.33;;;10.10;99.90;;;;;;5061506;28;20924;-72
2024/01/05 05:02:01;;;;;;;6.20;2.80;;;10.10;99.90;;;;;;5034688;28;20489;-72
2024/01/05 05:04:29;;;;;;;4.40;2.30;;;10.10;99.90;;;;;;5036674;28;20435;-72
2024/01/05 05:06:55;;;;;;;3.93;2.30;;;10.10;99.90;;;;;;5054603;28;20425;-72
2024/01/05 05:09:20;;;;;;;6.10;2.63;;;10.10;99.90;;;;;;5028518;28;20469;-72
2024/01/05 05:11:46;;;;;;;6.90;2.40;;;10.10;99.90;;;;;;5038958;28;20548;-72
2024/01/05 05:14:12;;;;;;;5.67;2.73;;;10.10;99.90;;;;;;5060149;28;20486;-72
2024/01/05 05:16:40;;;;;;;3.63;2.30;;;10.10;99.90;;;;;;5059771;28;20438;-72
2024/01/05 05:19:08;;;;;;;7.20;3.07;;;10.10;99.90;;;;;;5043089;28;20222;-72
2024/01/05 05:21:34;;;;;;;5.33;2.23;;;10.10;99.90;;;;;;5054534;28;20438;-71
2024/01/05 05:24:02;;;;;;;4.33;2.40;;;10.10;99.90;;;;;;5058168;28;20949;-71
2024/01/05 05:26:30;;;;;;;5.33;2.57;;;10.10;99.90;;;;;;5056408;28;20442;-72
2024/01/05 05:29:00;;;;;;;8.80;2.63;;;10.10;99.90;;;;;;5049740;28;20465;-72
2024/01/05 05:31:26;;;;;;;6.10;2.73;;;10.10;99.90;;;;;;5054729;28;20507;-73
2024/01/05 05:33:55;;;;;;;5.00;2.33;;;10.10;99.90;;;;;;5056850;28;20453;-72
2024/01/05 05:36:23;;;;;;;5.27;2.80;;;10.10;99.90;;;;;;5053199;28;20430;-72
2024/01/05 05:38:52;;;;;;;5.53;2.30;;;10.10;99.90;;;;;;5041079;28;21007;-72
2024/01/05 05:41:18;;;;;;;4.40;2.63;;;10.10;99.90;;;;;;5056343;28;20980;-71
2024/01/05 05:43:51;;;;;;;6.60;2.90;;;10.10;99.90;;;;;;5050193;28;20436;-71
2024/01/05 05:46:18;;;;;;;6.10;2.40;;;10.10;99.90;;;;;;5035958;28;20460;-71
2024/01/05 05:48:44;;;;;;;5.50;2.13;;;10.10;99.90;;;;;;5024445;28;20543;-72
2024/01/05 05:51:11;;;;;;;4.77;2.30;;;10.10;99.90;;;;;;5055660;28;20553;-72
2024/01/05 05:53:40;;;;;;;8.00;2.93;;;10.00;99.90;;;;;;5057250;28;20457;-72
2024/01/05 05:56:07;;;;;;;4.30;2.50;;;10.10;99.90;;;;;;5053368;28;21048;-71
2024/01/05 05:58:34;;;;;;;11.10;2.63;;;10.10;99.90;;;;;;5051991;28;20451;-72
2024/01/05 06:01:01;;;;;;;3.60;2.13;;;10.00;99.90;;;;;;5040661;28;20422;-71
2024/01/05 06:03:27;;;;;;;4.00;2.30;;;10.10;99.90;;;;;;5056709;28;20454;-72
2024/01/05 06:05:52;;;;;;;6.07;3.20;;;10.10;99.90;;;;;;5050870;28;21165;-71
2024/01/05 06:08:19;;;;;;;3.37;2.70;;;10.10;99.90;;;;;;5039215;28;20546;-71
2024/01/05 06:10:45;;;;;;;12.67;3.17;;;10.10;99.90;;;;;;5053875;28;20489;-78
2024/01/05 06:13:11;;;;;;;4.30;2.40;;;10.00;99.90;;;;;;5052694;28;20499;-75
2024/01/05 06:15:42;;;;;;;5.03;2.80;;;10.00;99.90;;;;;;5053837;28;20937;-71
2024/01/05 06:18:08;;;;;;;3.57;2.27;;;10.10;99.90;;;;;;5056418;28;20527;-72
2024/01/05 06:20:34;;;;;;;5.97;2.77;;;10.00;99.90;;;;;;5039459;28;20450;-72
2024/01/05 06:23:02;;;;;;;6.40;2.50;;;10.10;99.90;;;;;;5039475;28;20442;-73
2024/01/05 06:25:33;;;;;;;5.20;2.70;;;10.10;99.90;;;;;;5052317;28;20458;-72
2024/01/05 06:28:00;;;;;;;2.40;2.20;;;10.00;99.90;;;;;;5053767;28;20440;-74
2024/01/05 06:30:26;;;;;;;6.80;2.70;;;10.00;99.90;;;;;;5039408;28;20469;-71
2024/01/05 06:32:52;;;;;;;5.13;2.27;;;10.10;99.90;;;;;;5078866;22;20971;-89
2024/01/05 06:35:18;;;;;;;6.97;3.00;;;10.10;99.90;;;;;;5037467;28;20542;-86
2024/01/05 06:37:44;;;;;;;3.50;2.37;;;10.10;99.90;;;;;;5037897;28;20458;-81
2024/01/05 06:40:12;;;;;;;7.57;2.40;;;10.10;99.90;;;;;;5033723;28;20519;-88
2024/01/05 06:42:38;;;;;;;7.80;2.77;;;10.10;99.90;;;;;;5044848;28;20802;-88
2024/01/05 06:45:07;;;;;;;2.93;2.20;;;10.00;99.90;;;;;;5036596;28;20490;-86
2024/01/05 06:47:40;;;;;;;4.20;2.43;;;10.00;99.90;;;;;;5034118;28;20259;-86
2024/01/05 06:50:06;;;;;;;4.70;2.63;;;10.00;99.90;;;;;;5056091;28;20837;-85
2024/01/05 06:52:32;;;;;;;4.60;2.40;;;10.00;99.90;;;;;;5018683;28;20482;-87
2024/01/05 06:54:59;;;;;;;4.60;2.30;;;10.10;99.90;;;;;;5031772;28;20416;-88
2024/01/05 06:57:28;;;;;;;4.60;2.37;;;10.00;99.90;;;;;;5029343;28;20428;-91
2024/01/05 06:59:54;;;;;;;4.50;2.20;;;10.00;99.90;;;;;;5033289;28;20910;-90
2024/01/05 07:02:19;;;;;;;4.87;2.10;;;10.00;99.90;;;;;;5016303;28;20514;-88
2024/01/05 07:04:45;;;;;;;5.57;2.73;;;10.00;99.90;;;;;;5017016;28;20307;-86
2024/01/05 07:07:11;;;;;;;2.60;2.10;;;10.00;99.90;;;;;;5015881;28;20831;-87
2024/01/05 07:09:40;;;;;;;7.37;2.70;;;10.00;99.90;;;;;;5016405;28;21302;-86
2024/01/05 07:12:06;;;;;;;5.10;2.87;;;10.00;99.90;;;;;;5016234;28;20452;-91
2024/01/05 07:14:37;;;;;;;6.03;2.83;;;10.00;99.90;;;;;;5032504;28;20471;-89
2024/01/05 07:17:05;;;;;;;9.43;2.47;;;10.10;99.90;;;;;;5016904;28;20427;-87
2024/01/05 07:19:31;;;;;;;4.20;2.57;;;10.00;99.90;;;;;;5036393;28;20427;-84
2024/01/05 07:21:57;;;;;;;4.13;2.10;;;10.10;99.90;;;;;;5014518;28;20525;-81
2024/01/05 07:24:25;;;;;;;3.63;2.43;;;10.00;99.90;;;;;;5018957;28;20420;-86
2024/01/05 07:26:51;;;;;;;10.57;2.70;;;10.00;99.90;;;;;;5030385;28;20420;-85
2024/01/05 07:29:28;;;;;;;3.40;2.23;;;10.00;99.90;;;;;;5024967;28;20562;-85
2024/01/05 07:31:57;;;;;;;5.07;2.03;;;10.00;99.90;;;;;;5023589;28;21004;-86
2024/01/05 07:34:23;;;;;;;5.83;2.50;;;10.00;99.90;;;;;;5048606;28;20459;-84
2024/01/05 07:36:50;;;;;;;6.03;1.93;;;10.00;99.90;;;;;;5048310;28;20946;-86
2024/01/05 07:39:18;;;;;;;3.93;2.23;;;10.10;99.90;;;;;;5014760;28;20536;-86
2024/01/05 07:41:47;;;;;;;6.03;1.97;;;10.10;99.90;;;;;;5014206;28;20463;-86
2024/01/05 07:44:15;;;;;;;2.60;2.10;;;10.00;99.90;;;;;;5030535;28;20497;-86
2024/01/05 07:46:44;;;;;;;3.00;1.97;;;10.00;99.90;;;;;;5014550;28;20447;-85
2024/01/05 07:49:10;;;;;;;2.93;1.73;;;10.10;99.90;;;;;;5014216;28;20998;-86
2024/01/05 07:51:40;;;;;;;3.60;3.10;;;10.00;99.90;;;;;;5025089;28;20457;-87
2024/01/05 07:54:09;;;;;;;4.30;2.23;;;10.00;99.90;;;;;;5014612;28;20988;-86
2024/01/05 07:56:43;;;;;;;3.63;2.20;;;10.10;99.90;;;;;;5013283;28;20472;-86
2024/01/05 07:59:11;;;;;;;4.00;2.03;;;10.10;99.90;;;;;;5013734;28;20439;-84
2024/01/05 08:01:42;;;;;;;4.53;2.33;;;10.10;99.90;;;;;;5029117;28;20495;-85
2024/01/05 08:04:10;;;;;;;4.50;2.40;;;10.10;99.90;;;;;;5016640;28;20427;-84
2024/01/05 08:06:36;;;;;;;3.83;1.97;;;10.00;99.90;;;;;;5013136;28;20435;-85
2024/01/05 08:09:03;;;;;;;4.77;2.10;;;10.00;99.90;;;;;;5016034;28;21019;-86
2024/01/05 08:11:28;;;;;;;4.23;2.00;;;10.00;99.90;;;;;;5045864;28;20447;-84
2024/01/05 08:13:54;;;;;;;9.30;2.50;;;10.00;99.90;;;;;;5013651;28;20515;-84
2024/01/05 08:16:20;;;;;;;5.80;2.30;;;10.00;99.90;;;;;;5037404;28;20446;-83
2024/01/05 08:18:48;;;;;;;3.43;1.90;;;10.00;99.90;;;;;;5012675;28;20697;-84
2024/01/05 08:21:14;;;;;;;4.20;2.07;;;10.10;99.90;;;;;;5045953;28;20428;-82
2024/01/05 08:23:40;;;;;;;4.10;1.93;;;10.00;99.90;;;;;;5032443;28;20539;-84
2024/01/05 08:26:07;;;;;;;4.00;2.17;;;10.00;99.90;;;;;;5033020;28;20509;-84
2024/01/05 08:28:34;;;;;;;3.80;2.90;;;10.00;99.90;;;;;;5015828;28;20450;-84
2024/01/05 08:31:00;;;;;;;8.60;2.80;;;10.00;99.90;;;;;;5016103;28;20809;-83
2024/01/05 08:33:26;;;;;;;2.13;1.93;;;10.10;99.90;;;;;;5031549;28;20526;-83
2024/01/05 08:35:55;;;;;;;3.40;1.90;;;10.10;99.90;;;;;;5015665;28;20502;-84
2024/01/05 08:38:21;;;;;;;4.87;2.53;;;10.10;99.90;;;;;;5015906;28;20478;-84
2024/01/05 08:40:52;;;;;;;3.57;1.90;;;10.10;99.90;;;;;;5015585;28;20501;-84
2024/01/05 08:43:26;;;;;;;2.73;2.00;;;10.10;99.90;;;;;;5031360;28;20833;-85
2024/01/05 08:45:52;;;;;;;5.33;2.00;;;10.10;99.90;;;;;;5019363;28;20440;-83
2024/01/05 08:48:19;;;;;;;3.53;1.73;;;10.10;99.90;;;;;;5019463;28;20447;-85
2024/01/05 08:50:45;;;;;;;3.53;1.80;;;10.10;99.90;;;;;;5018630;28;20482;-84
2024/01/05 08:53:14;;;;;;;2.50;1.70;;;10.00;99.90;;;;;;5045455;28;20432;-84
2024/01/05 08:55:40;;;;;;;4.20;1.83;;;10.10;99.90;;;;;;5049099;28;20454;-87
2024/01/05 08:58:05;;;;;;;3.10;1.73;;;10.10;99.90;;;;;;5036953;28;20522;-82
2024/01/05 09:00:32;;;;;;;5.63;1.93;;;10.10;99.90;;;;;;5048887;28;20518;-86
2024/01/05 09:03:01;;;;;;;2.00;1.77;;;10.10;99.90;;;;;;5032839;28;20462;-87
2024/01/05 09:05:29;;;;;;;1.60;1.50;;;10.00;99.90;;;;;;5026585;28;20454;-86
2024/01/05 09:07:55;;;;;;;4.90;1.80;;;10.00;99.90;;;;;;5039403;28;20526;-85
2024/01/05 09:10:21;;;;;;;2.67;1.30;;;10.00;99.90;;;;;;5012583;28;20472;-86
2024/01/05 09:12:47;;;;;;;2.07;1.47;;;10.00;99.90;;;;;;5051631;28;20438;-84
2024/01/05 09:15:20;;;;;;;2.00;1.30;;;10.00;99.90;;;;;;5022845;28;20440;-86
2024/01/05 09:18:15;;;;;;;1.40;1.10;;;10.00;99.90;;;;;;5023118;28;20554;-86
2024/01/05 09:20:40;;;;;;;2.13;1.20;;;10.00;99.90;;;;;;5036009;28;20511;-86
2024/01/05 09:23:32;;;;;;;1.77;1.10;;;10.00;99.90;;;;;;5021382;28;20440;-82
2024/01/05 09:26:26;;;;;;;1.20;1.10;;;10.00;99.90;;;;;;5056892;28;20440;-85
2024/01/05 09:29:20;;;;;;;3.40;1.60;;;10.00;99.90;;;;;;5035675;28;20510;-86
2024/01/05 09:32:05;;;;;;;1.07;1.03;;;10.00;99.90;;;;;;5035615;28;20455;-86
2024/01/05 09:35:03;;;;;;;1.50;1.40;;;10.00;99.90;;;;;;5037477;28;20439;-86
2024/01/05 09:37:37;;;;;;;1.40;1.30;;;10.00;99.90;;;;;;5041602;28;20455;-88
2024/01/05 09:40:24;;;;;;;2.67;1.20;;;10.10;99.90;;;;;;5023837;28;20422;-85
2024/01/05 09:43:14;;;;;;;1.00;1.00;;;10.00;99.90;;;;;;5026717;28;20456;-86
2024/01/05 09:46:01;;;;;;;1.60;1.40;;;10.00;99.90;;;;;;5029490;28;20442;-82
2024/01/05 09:48:49;;;;;;;2.03;1.20;;;10.00;99.90;;;;;;5034415;28;20767;-85
2024/01/05 09:51:37;;;;;;;1.97;1.10;;;10.00;99.90;;;;;;5043525;28;21053;-86
2024/01/05 09:54:23;;;;;;;1.53;1.30;;;10.00;99.90;;;;;;5048742;28;20439;-85
2024/01/05 09:57:16;;;;;;;1.60;1.20;;;10.00;99.90;;;;;;5031252;28;20447;-85
2024/01/05 10:00:05;;;;;;;1.60;1.50;;;10.00;99.90;;;;;;5033798;28;20424;-86
2024/01/05 10:03:02;;;;;;;3.47;1.30;;;10.00;99.90;;;;;;5036438;28;20534;-84
2024/01/05 10:05:53;;;;;;;2.60;1.40;;;10.00;99.90;;;;;;5021823;28;20446;-85
2024/01/05 10:08:41;;;;;;;1.40;1.30;;;10.00;99.90;;;;;;5030143;22;20597;-37
2024/01/05 10:11:36;;;;;;;1.40;1.30;;;10.00;99.90;;;;;;4999310;28;20485;-37
2024/01/05 10:14:29;;;;;;;1.17;1.10;;;10.00;99.90;;;;;;4999979;28;20408;-37
2024/01/05 10:17:18;;;;;;;1.40;1.30;;;10.00;99.90;;;;;;5015076;28;21116;-37
2024/01/05 10:20:15;;;;;;;1.50;1.40;;;10.00;99.90;;;;;;4999301;28;20498;-36
2024/01/05 10:23:04;;;;;;;2.10;1.90;;;10.00;99.90;;;;;;4989750;28;20435;-37
2024/01/05 10:25:53;;;;;;;2.10;1.40;;;10.10;99.90;;;;;;5000268;28;20934;-35
2024/01/05 10:28:39;;;;;;;1.43;1.33;;;10.10;99.90;;;;;;5011895;28;20447;-34
2024/01/05 10:31:27;;;;;;;3.00;1.70;;;10.10;99.90;;;;;;5010927;28;20452;-34
2024/01/05 10:34:14;;;;;;;2.03;1.30;;;10.10;99.90;;;;;;5003647;28;20883;-39
2024/01/05 10:37:04;;;;;;;1.67;1.30;;;10.00;99.90;;;;;;4997193;28;20478;-34
2024/01/05 10:39:56;;;;;;;1.43;1.13;;;10.00;99.90;;;;;;4997112;28;20522;-37
2024/01/05 10:42:42;;;;;;;1.53;1.33;;;10.00;99.90;;;;;;4995764;28;20444;-38
2024/01/05 10:45:28;;;;;;;1.20;1.10;;;10.00;99.90;;;;;;5009867;28;21128;-39
2024/01/05 10:48:16;;;;;;;1.30;1.20;;;10.00;99.90;;;;;;5012185;28;20459;-35
2024/01/05 10:51:06;;;;;;;2.83;1.80;;;10.00;99.90;;;;;;4993372;28;20986;-35
2024/01/05 10:53:53;;;;;;;2.70;1.60;;;10.00;99.90;;;;;;5000697;28;21232;-35
2024/01/05 10:56:43;;;;;;;3.93;2.30;;;10.00;99.90;;;;;;5009259;28;20432;-38
2024/01/05 10:59:29;;;;;;;1.70;1.60;;;10.10;99.90;;;;;;5013433;28;20455;-36
2024/01/05 11:02:19;;;;;;;1.50;1.40;;;10.10;99.90;;;;;;5010330;28;20462;-33
2024/01/05 11:05:11;;;;;;;3.70;1.47;;;10.10;99.90;;;;;;5010486;28;20437;-39
2024/01/05 11:08:01;;;;;;;4.60;1.50;;;10.10;99.90;;;;;;5011414;28;20566;-34
2024/01/05 11:11:10;;;;;;;2.10;1.30;;;10.10;99.90;;;;;;4999717;28;20472;-39
2024/01/05 11:14:24;;;;;;;1.70;1.60;;;10.10;99.90;;;;;;5017013;28;20431;-35
2024/01/05 11:17:10;;;;;;;2.57;1.63;;;10.00;99.90;;;;;;5012144;28;20513;-39
2024/01/05 11:20:16;;;;;;;1.70;1.50;;;10.00;99.90;;;;;;4989335;28;20428;-36
2024/01/05 11:23:08;;;;;;;1.70;1.60;;;10.00;99.90;;;;;;5000818;28;20428;-38
2024/01/05 11:25:55;;;;;;;2.50;1.67;;;10.00;99.90;;;;;;4986793;28;20518;-36
2024/01/05 11:28:41;;;;;;;1.80;1.70;;;10.00;99.90;;;;;;4998465;28;20452;-36
2024/01/05 11:31:46;;;;;;;1.67;1.57;;;10.00;99.90;;;;;;5009768;28;20455;-34
2024/01/05 11:34:35;;;;;;;1.60;1.50;;;10.00;99.90;;;;;;5009447;28;20526;-35
2024/01/05 11:37:32;;;;;;;1.97;1.60;;;10.00;99.90;;;;;;5007032;28;20938;-37
2024/01/05 11:40:29;;;;;;;1.60;1.50;;;10.00;99.90;;;;;;5006609;28;20539;-36
2024/01/05 11:43:33;;;;;;;1.83;1.50;;;10.10;99.90;;;;;;5007876;28;20476;-38
2024/01/05 11:46:42;;;;;;;2.07;1.67;;;10.00;99.90;;;;;;4998973;28;20442;-36
2024/01/05 11:49:47;;;;;;;4.60;1.40;;;10.00;99.90;;;;;;4992926;28;21879;-34
2024/01/05 11:52:34;;;;;;;1.93;1.80;;;10.00;99.90;;;;;;5010494;28;20674;-35
2024/01/05 11:55:20;;;;;;;3.43;1.57;;;10.00;99.90;;;;;;5010597;28;21201;-36
2024/01/05 11:58:13;;;;;;;3.70;1.80;;;10.00;99.90;;;;;;5010423;28;21327;-36
2024/01/05 12:00:59;;;;;;;1.50;1.40;;;10.00;99.90;;;;;;4998713;28;20796;-34
2024/01/05 12:03:45;;;;;;;1.70;1.60;;;10.00;99.90;;;;;;4995434;28;20994;-35
2024/01/05 12:06:31;;;;;;;1.63;1.53;;;10.00;99.90;;;;;;5012547;28;20993;-33
2024/01/05 12:09:22;;;;;;;3.40;1.70;;;10.00;99.90;;;;;;5007537;28;20579;-37
2024/01/05 12:12:18;;;;;;;1.73;1.40;;;10.00;99.90;;;;;;5018207;28;20871;-36
2024/01/05 12:15:10;;;;;;;1.30;1.20;;;10.00;99.90;;;;;;5013964;28;20443;-36
2024/01/05 12:18:09;;;;;;;2.20;1.70;;;10.00;99.90;;;;;;5003060;28;20446;-37
2024/01/05 12:21:00;;;;;;;1.87;1.57;;;10.00;99.90;;;;;;5013982;28;20434;-38
2024/01/05 12:23:51;;;;;;;2.03;1.70;;;10.00;99.90;;;;;;5010866;28;20504;-37
2024/01/05 12:26:39;;;;;;;2.07;1.40;;;10.00;99.90;;;;;;5013509;28;20435;-36
2024/01/05 12:29:27;;;;;;;2.03;1.70;;;10.00;99.90;;;;;;5017588;28;20586;-37
2024/01/05 12:32:15;;;;;;;1.80;1.67;;;10.00;99.90;;;;;;4993915;28;20513;-33
2024/01/05 12:35:05;;;;;;;1.90;1.70;;;10.00;99.90;;;;;;5018108;28;20431;-39
2024/01/05 12:37:57;;;;;;;1.70;1.50;;;10.00;99.90;;;;;;5014533;28;20521;-37
2024/01/05 12:40:46;;;;;;;3.70;1.70;;;10.00;99.90;;;;;;5018330;28;20509;-37
2024/01/05 12:43:32;;;;;;;4.80;1.80;;;10.10;99.90;;;;;;5020204;28;20561;-33
2024/01/05 12:46:20;;;;;;;2.73;1.77;;;10.00;99.90;;;;;;5020526;28;20429;-35
2024/01/05 12:49:19;;;;;;;4.23;1.50;;;10.00;99.90;;;;;;5015907;28;20468;-39
2024/01/05 12:52:08;;;;;;;1.60;1.50;;;10.00;99.90;;;;;;4999748;28;20436;-38
2024/01/05 12:54:56;;;;;;;2.10;1.37;;;10.00;99.90;;;;;;4990337;28;21095;-34
2024/01/05 12:57:42;;;;;;;5.40;3.90;;;10.00;99.90;;;;;;5003356;28;20452;-35
2024/01/05 13:00:29;;;;;;;2.17;1.90;;;10.00;99.90;;;;;;5002136;28;20435;-35
2024/01/05 13:03:18;;;;;;;2.40;1.50;;;10.00;99.90;;;;;;5014776;28;20436;-35
2024/01/05 13:06:09;;;;;;;2.00;1.50;;;10.00;99.90;;;;;;5017119;28;20424;-35
2024/01/05 13:08:55;;;;;;;1.30;1.20;;;10.00;99.90;;;;;;4995990;28;20609;-36
2024/01/05 13:11:53;;;;;;;2.00;1.47;;;10.00;99.90;;;;;;5003484;28;21015;-37
2024/01/05 13:14:40;;;;;;;2.83;1.63;;;10.00;99.90;;;;;;5016925;28;20434;-39
2024/01/05 13:17:28;;;;;;;2.50;1.40;;;10.00;99.90;;;;;;5007782;28;20435;-32
2024/01/05 13:20:25;;;;;;;2.77;1.93;;;10.00;99.90;;;;;;5002867;28;20467;-34